createdAt,value
2023-05-24T00:00:24.288Z,7.03
2023-05-24T00:03:31.015Z,6.97
2023-05-24T00:06:37.253Z,6.94
2023-05-24T00:09:40.887Z,6.90
2023-05-24T00:12:44.436Z,6.88
2023-05-24T00:15:47.979Z,6.91
2023-05-24T00:18:52.287Z,6.86
2023-05-24T00:21:57.600Z,6.85
2023-05-24T00:25:01.221Z,6.92
2023-05-24T00:28:04.832Z,6.94
2023-05-24T00:31:08.569Z,6.92
2023-05-24T00:34:12.372Z,6.90
2023-05-24T00:37:18.197Z,6.96
2023-05-24T00:40:21.799Z,7.06
2023-05-24T00:43:25.599Z,7.04
2023-05-24T00:46:33.332Z,7.02
2023-05-24T00:49:37.426Z,7.15
2023-05-24T00:52:43.452Z,7.00
2023-05-24T00:55:47.783Z,7.02
2023-05-24T00:58:54.785Z,7.06
2023-05-24T01:01:58.553Z,7.04
2023-05-24T01:05:02.877Z,7.11
2023-05-24T01:08:22.863Z,7.11
2023-05-24T01:11:44.352Z,7.04
2023-05-24T01:15:05.233Z,7.07
2023-05-24T01:18:17.651Z,7.10
2023-05-24T01:21:48.569Z,7.00
2023-05-24T01:25:05.308Z,7.10
2023-05-24T01:28:12.768Z,7.11
2023-05-24T01:31:18.565Z,7.14
2023-05-24T01:34:22.184Z,7.13
2023-05-24T01:37:25.788Z,7.19
2023-05-24T01:40:29.454Z,7.24
2023-05-24T01:43:40.710Z,7.26
2023-05-24T01:46:51.223Z,7.26
2023-05-24T01:50:00.665Z,7.26
2023-05-24T01:53:08.866Z,7.22
2023-05-24T01:56:14.270Z,7.25
2023-05-24T01:59:21.794Z,7.28
2023-05-24T02:02:25.895Z,7.26
2023-05-24T02:05:29.618Z,7.28
2023-05-24T02:08:33.361Z,7.25
2023-05-24T02:11:36.897Z,7.25
2023-05-24T02:14:42.839Z,7.33
2023-05-24T02:17:46.494Z,7.27
2023-05-24T02:20:50.261Z,7.33
2023-05-24T02:23:53.778Z,7.25
2023-05-24T02:26:57.329Z,7.33
2023-05-24T02:30:02.248Z,7.28
2023-05-24T02:33:05.938Z,7.32
2023-05-24T02:36:09.600Z,7.34
2023-05-24T02:39:13.178Z,7.47
2023-05-24T02:42:16.741Z,7.37
2023-05-24T02:45:21.826Z,7.36
2023-05-24T02:48:25.390Z,7.50
2023-05-24T02:51:28.921Z,7.47
2023-05-24T02:54:32.388Z,7.46
2023-05-24T02:57:35.933Z,7.46
2023-05-24T03:00:41.110Z,7.43
2023-05-24T03:03:45.022Z,7.42
2023-05-24T03:06:48.582Z,7.47
2023-05-24T03:09:52.167Z,7.39
2023-05-24T03:12:55.717Z,7.42
2023-05-24T03:16:00.856Z,7.42
2023-05-24T03:19:04.440Z,7.44
2023-05-24T03:22:08.005Z,7.52
2023-05-24T03:25:11.826Z,7.51
2023-05-24T03:28:15.941Z,7.47
2023-05-24T03:31:24.226Z,7.50
2023-05-24T03:34:27.775Z,7.56
2023-05-24T03:37:31.224Z,7.39
2023-05-24T03:40:35.406Z,7.41
2023-05-24T03:43:39.084Z,7.43
2023-05-24T03:46:44.024Z,7.50
2023-05-24T03:49:47.504Z,7.36
2023-05-24T03:52:51.125Z,7.41
2023-05-24T03:55:54.736Z,7.51
2023-05-24T03:59:00.882Z,7.60
2023-05-24T04:02:06.448Z,7.72
2023-05-24T04:05:12.397Z,7.69
2023-05-24T04:08:16.519Z,7.64
2023-05-24T04:11:20.581Z,7.70
2023-05-24T04:14:24.196Z,7.79
2023-05-24T04:17:34.975Z,7.76
2023-05-24T04:20:38.941Z,7.83
2023-05-24T04:23:42.508Z,7.81
2023-05-24T04:26:47.721Z,7.80
2023-05-24T04:29:53.288Z,7.86
2023-05-24T04:32:58.593Z,7.97
2023-05-24T04:36:02.307Z,7.82
2023-05-24T04:39:06.081Z,7.95
2023-05-24T04:42:09.787Z,7.89
2023-05-24T04:45:25.077Z,7.93
2023-05-24T04:48:30.026Z,8.01
2023-05-24T04:51:34.164Z,7.96
2023-05-24T04:54:37.679Z,7.98
2023-05-24T04:57:41.304Z,7.92
2023-05-24T05:00:45.793Z,7.97
2023-05-24T05:03:50.789Z,8.11
2023-05-24T05:06:55.583Z,8.10
2023-05-24T05:09:59.167Z,8.07
2023-05-24T05:13:02.869Z,7.99
2023-05-24T05:16:06.819Z,7.96
2023-05-24T05:19:11.757Z,8.05
2023-05-24T05:22:15.219Z,7.94
2023-05-24T05:25:18.862Z,8.02
2023-05-24T05:28:22.416Z,8.07
2023-05-24T05:31:26.454Z,8.06
2023-05-24T05:34:31.299Z,8.01
2023-05-24T05:37:34.774Z,8.06
2023-05-24T05:40:38.203Z,8.01
2023-05-24T05:43:41.801Z,8.16
2023-05-24T05:46:46.407Z,8.17
2023-05-24T05:49:51.473Z,8.28
2023-05-24T05:52:54.968Z,8.13
2023-05-24T05:55:58.634Z,8.37
2023-05-24T05:59:02.138Z,8.46
2023-05-24T06:02:07.237Z,8.39
2023-05-24T06:05:13.985Z,8.37
2023-05-24T06:08:18.858Z,8.36
2023-05-24T06:11:22.567Z,8.39
2023-05-24T06:14:26.075Z,8.49
2023-05-24T06:17:30.214Z,8.35
2023-05-24T06:20:35.298Z,8.47
2023-05-24T06:23:38.989Z,8.34
2023-05-24T06:26:42.854Z,8.45
2023-05-24T06:29:46.827Z,8.46
2023-05-24T06:32:50.465Z,8.59
2023-05-24T06:35:55.412Z,8.50
2023-05-24T06:38:58.864Z,8.58
2023-05-24T06:42:02.359Z,8.51
2023-05-24T06:45:08.369Z,8.63
2023-05-24T06:48:12.079Z,8.60
2023-05-24T06:51:17.293Z,8.62
2023-05-24T06:54:21.753Z,8.77
2023-05-24T06:57:25.620Z,8.78
2023-05-24T07:00:29.114Z,8.83
2023-05-24T07:03:32.957Z,8.84
2023-05-24T07:06:39.422Z,8.80
2023-05-24T07:09:44.362Z,8.78
2023-05-24T07:12:47.863Z,8.89
2023-05-24T07:15:51.376Z,8.82
2023-05-24T07:18:56.549Z,8.89
2023-05-24T07:22:01.594Z,8.82
2023-05-24T07:25:05.732Z,8.77
2023-05-24T07:28:09.227Z,8.93
2023-05-24T07:31:12.792Z,9.07
2023-05-24T07:34:16.509Z,9.09
2023-05-24T07:37:24.154Z,9.09
2023-05-24T07:40:27.647Z,9.17
2023-05-24T07:43:31.318Z,9.35
2023-05-24T07:46:35.300Z,9.28
2023-05-24T07:49:38.898Z,9.37
2023-05-24T07:52:43.844Z,9.50
2023-05-24T07:55:47.769Z,9.63
2023-05-24T07:58:51.894Z,9.44
2023-05-24T08:01:55.771Z,9.73
2023-05-24T08:04:59.286Z,9.84
2023-05-24T08:08:04.265Z,9.74
2023-05-24T08:11:08.441Z,9.82
2023-05-24T08:14:11.978Z,9.87
2023-05-24T08:17:15.544Z,9.90
2023-05-24T08:20:19.271Z,9.89
2023-05-24T08:23:24.228Z,9.82
2023-05-24T08:26:27.959Z,9.65
2023-05-24T08:29:31.708Z,9.69
2023-05-24T08:32:36.435Z,9.79
2023-05-24T08:35:40.382Z,9.80
2023-05-24T08:38:45.510Z,9.74
2023-05-24T08:42:01.035Z,9.76
2023-05-24T08:45:23.828Z,9.66
2023-05-24T08:48:29.498Z,9.67
2023-05-24T08:51:33.308Z,9.69
2023-05-24T08:54:39.811Z,9.68
2023-05-24T08:57:45.125Z,9.64
2023-05-24T09:00:48.675Z,9.79
2023-05-24T09:03:54.438Z,9.99
2023-05-24T09:06:59.574Z,10.17
2023-05-24T09:10:09.050Z,10.30
2023-05-24T09:13:16.744Z,10.38
2023-05-24T09:16:21.593Z,10.41
2023-05-24T09:19:27.937Z,10.49
2023-05-24T09:22:31.528Z,10.52
2023-05-24T09:25:37.014Z,10.75
2023-05-24T09:28:41.827Z,10.55
2023-05-24T09:31:45.716Z,10.65
2023-05-24T09:34:49.330Z,10.95
2023-05-24T09:37:57.409Z,10.76
2023-05-24T09:41:04.449Z,11.15
2023-05-24T09:44:08.033Z,11.20
2023-05-24T09:47:12.937Z,11.51
2023-05-24T09:50:18.593Z,11.47
2023-05-24T09:53:24.220Z,11.24
2023-05-24T09:56:29.304Z,11.41
2023-05-24T09:59:35.336Z,11.37
2023-05-24T10:02:51.560Z,11.71
2023-05-24T10:05:57.131Z,11.46
2023-05-24T10:09:01.426Z,11.80
2023-05-24T10:12:09.184Z,11.81
2023-05-24T10:15:28.527Z,11.92
2023-05-24T10:18:33.049Z,11.99
2023-05-24T10:21:43.355Z,12.01
2023-05-24T10:24:51.330Z,11.98
2023-05-24T10:27:59.949Z,12.17
2023-05-24T10:31:11.902Z,12.10
2023-05-24T10:34:16.056Z,11.92
2023-05-24T10:37:19.830Z,11.74
2023-05-24T10:40:26.155Z,11.59
2023-05-24T10:43:31.183Z,12.11
2023-05-24T10:46:35.024Z,11.95
2023-05-24T10:49:40.345Z,12.13
2023-05-24T10:52:44.669Z,11.73
2023-05-24T10:55:58.827Z,11.69
2023-05-24T10:59:06.283Z,11.87
2023-05-24T11:02:14.064Z,11.38
2023-05-24T11:05:18.371Z,11.49
2023-05-24T11:08:27.707Z,11.31
2023-05-24T11:11:32.408Z,11.36
2023-05-24T11:14:40.757Z,11.45
2023-05-24T11:18:15.538Z,11.27
2023-05-24T11:21:20.034Z,11.27
2023-05-24T11:24:23.676Z,11.37
2023-05-24T11:27:28.061Z,11.23
2023-05-24T11:30:34.027Z,11.12
2023-05-24T11:33:43.761Z,11.14
2023-05-24T11:36:48.232Z,10.94
2023-05-24T11:39:53.485Z,10.95
2023-05-24T11:42:58.047Z,10.96
2023-05-24T11:46:03.124Z,11.05
2023-05-24T11:49:07.458Z,11.09
2023-05-24T11:52:11.074Z,11.13
2023-05-24T11:55:17.223Z,11.10
2023-05-24T11:58:24.935Z,11.26
2023-05-24T12:01:30.056Z,11.40
2023-05-24T12:04:35.359Z,11.58
2023-05-24T12:07:40.804Z,11.78
2023-05-24T12:10:45.599Z,11.77
2023-05-24T12:13:49.395Z,12.13
2023-05-24T12:16:58.366Z,12.11
2023-05-24T12:20:06.355Z,11.99
2023-05-24T12:23:11.533Z,12.00
2023-05-24T12:26:16.510Z,11.75
2023-05-24T12:29:22.006Z,11.99
2023-05-24T12:32:27.488Z,12.23
2023-05-24T12:35:31.196Z,12.07
2023-05-24T12:38:34.789Z,12.32
2023-05-24T12:41:38.339Z,11.99
2023-05-24T12:44:42.091Z,12.55
2023-05-24T12:47:47.398Z,12.45
2023-05-24T12:50:51.268Z,12.52
2023-05-24T12:53:54.764Z,12.39
2023-05-24T12:57:02.812Z,12.45
2023-05-24T13:00:08.712Z,12.57
2023-05-24T13:03:13.808Z,12.97
2023-05-24T13:06:17.777Z,13.10
2023-05-24T13:09:23.540Z,13.18
2023-05-24T13:12:27.971Z,12.55
2023-05-24T13:15:31.471Z,12.46
2023-05-24T13:18:37.427Z,12.81
2023-05-24T13:21:41.536Z,12.59
2023-05-24T13:24:45.379Z,12.84
2023-05-24T13:27:48.890Z,12.80
2023-05-24T13:30:52.493Z,12.64
2023-05-24T13:33:57.709Z,12.66
2023-05-24T13:37:01.681Z,12.11
2023-05-24T13:40:06.361Z,12.30
2023-05-24T13:43:09.983Z,12.41
2023-05-24T13:46:14.597Z,12.22
2023-05-24T13:49:19.649Z,12.26
2023-05-24T13:52:23.702Z,12.26
2023-05-24T13:55:28.758Z,12.22
2023-05-24T13:58:32.502Z,12.33
2023-05-24T14:01:37.863Z,12.42
2023-05-24T14:04:43.174Z,12.62
2023-05-24T14:07:47.332Z,12.53
2023-05-24T14:10:51.809Z,12.56
2023-05-24T14:14:57.126Z,12.65
2023-05-24T14:17:19.031Z,12.91
2023-05-24T14:20:24.037Z,12.65
2023-05-24T14:23:27.828Z,12.70
2023-05-24T14:26:31.436Z,12.55
2023-05-24T14:29:34.985Z,12.75
2023-05-24T14:32:38.506Z,12.53
2023-05-24T14:35:43.818Z,12.55
2023-05-24T14:38:47.425Z,12.38
2023-05-24T14:41:50.917Z,12.47
2023-05-24T14:44:54.468Z,12.70
2023-05-24T14:47:58.505Z,12.68
2023-05-24T14:51:03.464Z,12.51
2023-05-24T14:54:07.319Z,12.34
2023-05-24T14:57:10.788Z,12.72
2023-05-24T15:00:17.486Z,12.56
2023-05-24T15:03:22.186Z,12.53
2023-05-24T15:06:27.145Z,12.56
2023-05-24T15:09:30.649Z,12.50
2023-05-24T15:12:34.142Z,12.48
2023-05-24T15:15:38.350Z,12.51
2023-05-24T15:18:42.172Z,12.44
2023-05-24T15:21:47.066Z,12.51
2023-05-24T15:24:50.627Z,12.50
2023-05-24T15:27:54.904Z,12.89
2023-05-24T15:30:58.615Z,13.05
2023-05-24T15:34:02.139Z,12.91
2023-05-24T15:37:07.590Z,12.90
2023-05-24T15:40:13.376Z,12.98
2023-05-24T15:43:20.393Z,12.70
2023-05-24T15:46:24.302Z,12.34
2023-05-24T15:49:28.390Z,12.81
2023-05-24T15:52:33.395Z,12.77
2023-05-24T15:55:38.523Z,12.72
2023-05-24T15:58:41.988Z,12.68
2023-05-24T16:01:45.675Z,12.84
2023-05-24T16:04:49.277Z,12.51
2023-05-24T16:07:54.223Z,12.61
2023-05-24T16:10:58.265Z,12.57
2023-05-24T16:14:03.425Z,12.75
2023-05-24T16:17:07.328Z,12.78
2023-05-24T16:20:12.071Z,12.82
2023-05-24T16:23:17.044Z,12.66
2023-05-24T16:26:20.652Z,12.58
2023-05-24T16:29:24.239Z,12.48
2023-05-24T16:32:27.814Z,12.46
2023-05-24T16:35:32.106Z,12.25
2023-05-24T16:38:37.577Z,12.39
2023-05-24T16:41:41.499Z,12.60
2023-05-24T16:44:45.002Z,12.40
2023-05-24T16:47:48.657Z,12.25
2023-05-24T16:50:54.447Z,12.33
2023-05-24T16:53:59.460Z,12.58
2023-05-24T16:57:03.446Z,12.58
2023-05-24T17:00:08.980Z,12.35
2023-05-24T17:03:12.710Z,12.28
2023-05-24T17:06:16.521Z,12.35
2023-05-24T17:09:21.512Z,12.08
2023-05-24T17:12:24.989Z,12.08
2023-05-24T17:15:28.544Z,11.94
2023-05-24T17:18:32.080Z,11.95
2023-05-24T17:21:36.895Z,11.91
2023-05-24T17:24:41.835Z,11.65
2023-05-24T17:27:45.476Z,11.64
2023-05-24T17:30:49.002Z,11.62
2023-05-24T17:33:52.547Z,11.54
2023-05-24T17:36:56.069Z,11.55
2023-05-24T17:40:01.183Z,11.58
2023-05-24T17:43:04.941Z,11.65
2023-05-24T17:46:08.734Z,11.64
2023-05-24T17:49:14.044Z,11.72
2023-05-24T17:52:17.695Z,11.48
2023-05-24T17:55:22.680Z,11.30
2023-05-24T17:58:26.973Z,11.52
2023-05-24T18:01:30.818Z,11.54
2023-05-24T18:04:34.805Z,11.45
2023-05-24T18:07:38.552Z,11.36
2023-05-24T18:10:43.516Z,11.54
2023-05-24T18:13:47.170Z,11.39
2023-05-24T18:16:50.961Z,11.28
2023-05-24T18:19:54.569Z,11.27
2023-05-24T18:22:58.144Z,11.25
2023-05-24T18:26:03.339Z,11.23
2023-05-24T18:29:07.010Z,11.10
2023-05-24T18:32:11.801Z,11.10
2023-05-24T18:35:15.808Z,11.10
2023-05-24T18:38:19.653Z,10.98
2023-05-24T18:41:24.831Z,11.03
2023-05-24T18:44:28.362Z,10.97
2023-05-24T18:47:32.417Z,10.94
2023-05-24T18:50:35.947Z,10.93
2023-05-24T18:53:40.352Z,10.99
2023-05-24T18:56:45.655Z,10.92
2023-05-24T18:59:49.155Z,10.80
2023-05-24T19:02:52.810Z,10.77
2023-05-24T19:05:56.385Z,10.69
2023-05-24T19:09:00.834Z,10.74
2023-05-24T19:12:06.381Z,10.71
2023-05-24T19:15:10.925Z,10.69
2023-05-24T19:18:14.456Z,10.74
2023-05-24T19:21:17.979Z,10.62
2023-05-24T19:24:24.281Z,10.60
2023-05-24T19:27:29.232Z,10.58
2023-05-24T19:30:34.194Z,10.61
2023-05-24T19:33:48.389Z,10.51
2023-05-24T19:36:56.040Z,10.50
2023-05-24T19:40:00.279Z,10.53
2023-05-24T19:43:05.259Z,10.47
2023-05-24T19:46:10.766Z,10.37
2023-05-24T19:49:14.428Z,10.40
2023-05-24T19:52:20.507Z,10.40
2023-05-24T19:55:24.188Z,10.38
2023-05-24T19:58:29.963Z,10.28
2023-05-24T20:01:33.621Z,10.24
2023-05-24T20:04:41.496Z,10.12
2023-05-24T20:07:45.043Z,10.15
2023-05-24T20:10:50.711Z,10.07
2023-05-24T20:13:56.205Z,10.13
2023-05-24T20:17:01.465Z,10.16
2023-05-24T20:20:05.604Z,10.17
2023-05-24T20:23:09.212Z,10.17
2023-05-24T20:26:13.772Z,10.02
2023-05-24T20:29:18.786Z,10.12
2023-05-24T20:32:22.598Z,10.06
2023-05-24T20:35:26.214Z,9.94
2023-05-24T20:38:29.759Z,9.93
2023-05-24T20:41:34.168Z,9.90
2023-05-24T20:44:39.075Z,9.95
2023-05-24T20:47:42.798Z,9.94
2023-05-24T20:50:46.421Z,9.88
2023-05-24T20:53:52.188Z,9.87
2023-05-24T20:56:55.687Z,9.90
2023-05-24T21:00:00.864Z,9.90
2023-05-24T21:03:04.677Z,9.84
2023-05-24T21:06:08.732Z,9.88
2023-05-24T21:09:12.324Z,9.77
2023-05-24T21:12:16.092Z,9.95
2023-05-24T21:15:21.076Z,9.86
2023-05-24T21:18:24.706Z,9.83
2023-05-24T21:21:28.196Z,9.86
2023-05-24T21:24:31.752Z,9.71
2023-05-24T21:27:35.301Z,9.74
2023-05-24T21:30:40.305Z,9.78
2023-05-24T21:33:44.231Z,9.63
2023-05-24T21:36:47.732Z,9.63
2023-05-24T21:39:51.855Z,9.66
2023-05-24T21:42:55.416Z,9.61
2023-05-24T21:46:00.361Z,9.71
2023-05-24T21:49:03.987Z,9.68
2023-05-24T21:52:07.598Z,9.66
2023-05-24T21:55:11.505Z,9.61
2023-05-24T21:58:15.066Z,9.53
2023-05-24T22:01:20.084Z,9.61
2023-05-24T22:04:23.733Z,9.61
2023-05-24T22:07:27.439Z,9.52
2023-05-24T22:10:31.023Z,9.58
2023-05-24T22:13:34.559Z,9.62
2023-05-24T22:16:39.645Z,9.60
2023-05-24T22:19:44.056Z,9.58
2023-05-24T22:22:53.379Z,9.62
2023-05-24T22:25:56.996Z,9.66
2023-05-24T22:29:04.112Z,9.63
2023-05-24T22:32:09.145Z,9.61
2023-05-24T22:35:12.829Z,9.59
2023-05-24T22:38:16.322Z,9.65
2023-05-24T22:41:20.061Z,9.62
2023-05-24T22:44:23.663Z,9.48
2023-05-24T22:47:28.903Z,9.48
2023-05-24T22:50:32.472Z,9.54
2023-05-24T22:53:37.834Z,9.53
2023-05-24T22:56:43.798Z,9.51
2023-05-24T22:59:47.360Z,9.59
2023-05-24T23:02:52.395Z,9.63
2023-05-24T23:05:55.960Z,9.66
2023-05-24T23:08:59.853Z,9.64
2023-05-24T23:12:08.118Z,9.54
2023-05-24T23:15:18.291Z,9.46
2023-05-24T23:18:25.808Z,9.38
2023-05-24T23:21:29.589Z,9.37
2023-05-24T23:24:34.450Z,9.38
2023-05-24T23:27:38.079Z,9.38
2023-05-24T23:30:41.662Z,9.36
2023-05-24T23:33:46.676Z,9.35
2023-05-24T23:36:50.196Z,9.40
2023-05-24T23:39:53.774Z,9.47
2023-05-24T23:42:57.605Z,9.47
2023-05-24T23:46:01.228Z,9.36
2023-05-24T23:49:06.456Z,9.43
2023-05-24T23:52:10.639Z,9.40
2023-05-24T23:55:14.237Z,9.39
2023-05-24T23:58:18.244Z,9.34
